Birmingham, AL (35217)

12:34 PM CST on December 05, 2016 (GMT -0600)
tarrant | | Change Station

Elev 587 ft 33.59 °N, 86.77 °W | Updated 13 seconds ago

Light Rain
Light Rain
52.5 °F
Feels Like 52.5 °F
N
2.0
Wind Variable Wind from East

Today
High -- | Low -- °F
--% Chance of Precip.
Yesterday
High -- | Low -- °F
Precip. -- in
Pressure 29.96 in
Visibility 7.0 miles
Clouds Few 700 ft
Scattered Clouds 6500 ft
Overcast 10000 ft
Dew Point 52 °F
Humidity 98%
Rainfall 0.56 in
Snow Depth Not available.
6:37 AM 4:38 PM
Waxing Crescent, 33% visible
METAR KBHM 051753Z 06003KT 7SM -RA FEW007 SCT065 OVC100 11/10 A2996 RMK AO2 SLP145 P0022 60039 T01060100 10106 20094 58012
Pressure 29.96 in
Visibility 7.0 miles
Clouds Few 700 ft
Scattered Clouds 6500 ft
Overcast 10000 ft
Dew Point 52 °F
Humidity 98%
Rainfall 0.56 in
Snow Depth Not available.
6:37 AM 4:38 PM
Waxing Crescent, 33% visible
METAR KBHM 051753Z 06003KT 7SM -RA FEW007 SCT065 OVC100 11/10 A2996 RMK AO2 SLP145 P0022 60039 T01060100 10106 20094 58012

10-Day Weather Forecast

Almanac

Astronomy

Dec. 05, 2016 Rise Set
Actual Time
Civil Twilight
Nautical Twilight
Astronomical Twilight
Moon
Length of Visible Light
Length of Day
Tomorrow will be .
, % of the Moon is Illuminated

Today's Extremes

State Highs State Lows

Community

WunderPhotos

Upload Photos

1,955,849 photos uploaded!

WunderBlog® & News

Nearby

Air Quality

  Air Quality AQ Index Pollutant
Not available.

Snow Depth

Station Depth Elevation

Earthquake Activity

City Distance Mag. Time & Date
Minimum magnitude displayed is 2.5.

Coastal Water Temperatures

Place Temperature

Stations

Nearby Weather Stations

Station Location Temp. Windchill Dew Point Humidity Wind Precip. Elev Updated Type
                   

Watches & Warnings

There are currently no watches in effect.